Time;durP1;ratioP1;P1;durP2;ratioP2;P2;SDS_P1;SDS_P2;PMS_P1;PMS_P2;Temp;Humidity;BMP_temperature;BMP_pressure;BME280_temperature;BME280_humidity;BME280_pressure;Samples;Min_cycle;Max_cycle;Signal;HPM_P1;HPM_P2
2023/02/02 00:01:54;;;;;;;21.85;6.25;;;8.80;80.50;;;;;;5037886;28;20569;-73
2023/02/02 00:04:30;;;;;;;20.88;5.85;;;8.80;80.70;;;;;;5038200;28;20478;-73
2023/02/02 00:06:56;;;;;;;23.77;5.10;;;8.70;80.70;;;;;;5040440;28;20438;-73
2023/02/02 00:09:22;;;;;;;24.30;5.55;;;8.80;80.70;;;;;;5040466;28;20036;-73
2023/02/02 00:11:49;;;;;;;22.08;5.07;;;8.70;80.70;;;;;;5035161;28;20065;-73
2023/02/02 00:14:17;;;;;;;26.92;6.45;;;8.70;80.70;;;;;;5036685;28;20040;-73
2023/02/02 00:16:45;;;;;;;20.70;5.07;;;8.80;80.70;;;;;;5034641;28;20496;-73
2023/02/02 00:19:14;;;;;;;25.20;6.28;;;8.80;80.70;;;;;;5035462;28;20029;-73
2023/02/02 00:21:40;;;;;;;24.45;5.55;;;8.70;80.80;;;;;;5036295;28;20041;-73
2023/02/02 00:24:08;;;;;;;21.65;5.85;;;8.70;80.90;;;;;;5034826;28;20096;-73
2023/02/02 00:26:34;;;;;;;23.42;6.25;;;8.70;80.90;;;;;;5034312;28;20032;-73
2023/02/02 00:29:00;;;;;;;25.17;6.10;;;8.70;80.70;;;;;;5037539;28;20017;-73
2023/02/02 00:31:26;;;;;;;24.85;6.28;;;8.70;80.80;;;;;;5034482;28;20468;-73
2023/02/02 00:33:51;;;;;;;20.58;5.78;;;8.70;80.90;;;;;;5034326;28;20441;-73
2023/02/02 00:36:19;;;;;;;21.90;6.93;;;8.70;81.00;;;;;;5037529;28;20033;-73
2023/02/02 00:38:45;;;;;;;24.38;6.40;;;8.70;81.00;;;;;;5039944;28;20128;-73
2023/02/02 00:41:11;;;;;;;22.38;6.57;;;8.70;80.90;;;;;;5035215;28;20083;-74
2023/02/02 00:43:37;;;;;;;20.67;5.53;;;8.70;81.10;;;;;;5036915;28;20044;-73
2023/02/02 00:46:03;;;;;;;20.27;5.68;;;8.70;81.10;;;;;;5032805;28;20029;-73
2023/02/02 00:48:28;;;;;;;17.65;5.60;;;8.70;81.00;;;;;;5036271;28;20081;-73
2023/02/02 00:50:54;;;;;;;21.73;5.22;;;8.70;81.10;;;;;;5035501;28;20068;-73
2023/02/02 00:53:20;;;;;;;19.65;5.55;;;8.60;81.20;;;;;;5037503;28;20115;-73
2023/02/02 00:55:45;;;;;;;23.15;6.57;;;8.60;81.30;;;;;;5035380;28;20029;-73
2023/02/02 00:58:11;;;;;;;19.98;5.18;;;8.60;81.30;;;;;;5036253;28;20130;-72
2023/02/02 01:00:36;;;;;;;21.95;8.13;;;8.60;81.30;;;;;;5035303;28;20081;-73
2023/02/02 01:03:03;;;;;;;24.05;10.23;;;8.60;81.30;;;;;;5037009;28;20484;-73
2023/02/02 01:05:30;;;;;;;31.25;12.10;;;8.60;81.40;;;;;;5033194;28;20071;-73
2023/02/02 01:07:55;;;;;;;28.88;15.00;;;8.60;81.50;;;;;;5034566;28;20021;-73
2023/02/02 01:10:21;;;;;;;30.25;15.30;;;8.60;81.50;;;;;;5036087;28;20358;-74
2023/02/02 01:12:47;;;;;;;28.25;11.57;;;8.70;81.20;;;;;;5036202;28;20087;-73
2023/02/02 01:15:12;;;;;;;22.65;9.02;;;8.60;81.30;;;;;;5031944;28;20024;-73
2023/02/02 01:17:38;;;;;;;24.92;8.95;;;8.60;81.30;;;;;;5035222;28;20122;-73
2023/02/02 01:20:06;;;;;;;21.20;8.10;;;8.60;81.40;;;;;;5033801;28;20048;-73
2023/02/02 01:22:32;;;;;;;28.70;7.63;;;8.60;81.40;;;;;;5035222;28;20052;-73
2023/02/02 01:24:58;;;;;;;23.73;7.30;;;8.60;81.40;;;;;;5041732;28;20472;-73
2023/02/02 01:27:24;;;;;;;23.35;8.27;;;8.60;81.50;;;;;;5041062;28;20087;-73
2023/02/02 01:29:50;;;;;;;25.17;7.82;;;8.60;81.30;;;;;;5038932;28;20060;-73
2023/02/02 01:32:15;;;;;;;25.25;6.93;;;8.60;81.30;;;;;;5034605;28;20505;-73
2023/02/02 01:34:42;;;;;;;27.25;7.07;;;8.60;81.30;;;;;;5036815;28;20076;-73
2023/02/02 01:37:08;;;;;;;27.63;7.57;;;8.60;81.30;;;;;;5038875;28;20021;-72
2023/02/02 01:39:34;;;;;;;23.73;5.97;;;8.60;81.30;;;;;;5036332;28;20042;-73
2023/02/02 01:42:01;;;;;;;23.30;8.20;;;8.60;81.40;;;;;;5037085;28;20041;-73
2023/02/02 01:44:51;;;;;;;27.08;7.05;;;8.60;81.50;;;;;;5040221;28;20025;-73
2023/02/02 01:47:20;;;;;;;24.98;6.95;;;8.60;81.60;;;;;;5038860;28;20174;-73
2023/02/02 01:49:46;;;;;;;27.67;6.45;;;8.60;81.70;;;;;;5041074;28;20098;-73
2023/02/02 01:52:16;;;;;;;21.83;5.65;;;8.60;81.60;;;;;;5041726;28;20128;-73
2023/02/02 01:54:47;;;;;;;21.33;6.00;;;8.60;81.70;;;;;;5037451;28;20016;-73
2023/02/02 01:57:33;;;;;;;23.17;5.40;;;8.60;81.70;;;;;;5037359;28;20112;-73
2023/02/02 02:00:04;;;;;;;19.80;5.25;;;8.60;81.70;;;;;;5041070;28;20052;-73
2023/02/02 02:02:31;;;;;;;24.42;5.43;;;8.60;81.60;;;;;;5039740;28;20036;-73
2023/02/02 02:05:00;;;;;;;22.63;5.97;;;8.60;81.60;;;;;;5031004;28;20323;-73
2023/02/02 02:07:26;;;;;;;22.25;6.45;;;8.50;81.60;;;;;;5039680;28;20171;-73
2023/02/02 02:09:51;;;;;;;22.27;6.03;;;8.60;81.60;;;;;;5036687;28;20025;-73
2023/02/02 02:12:17;;;;;;;22.85;6.07;;;8.60;81.60;;;;;;5039477;28;20037;-73
2023/02/02 02:17:58;;;;;;;25.45;5.90;;;8.60;81.60;;;;;;5036100;28;20056;-73
2023/02/02 02:27:06;;;;;;;25.45;8.20;;;8.50;81.60;;;;;;5038368;28;20079;-73
2023/02/02 02:30:05;;;;;;;22.40;7.35;;;8.60;81.30;;;;;;5036540;28;20039;-73
2023/02/02 02:32:49;;;;;;;19.10;7.63;;;8.60;81.40;;;;;;5036391;28;20162;-73
2023/02/02 02:35:30;;;;;;;28.70;7.07;;;8.60;81.40;;;;;;5036744;28;20486;-73
2023/02/02 02:38:16;;;;;;;24.63;6.65;;;8.50;81.50;;;;;;5037771;28;20044;-73
2023/02/02 02:40:56;;;;;;;20.17;7.10;;;8.50;81.40;;;;;;5037795;28;20040;-73
2023/02/02 02:43:28;;;;;;;20.42;6.97;;;8.50;81.30;;;;;;5037875;28;20025;-73
2023/02/02 02:45:54;;;;;;;23.02;8.15;;;8.50;81.40;;;;;;5037891;28;20044;-73
2023/02/02 02:48:20;;;;;;;21.50;8.73;;;8.50;81.30;;;;;;5035175;28;20757;-73
2023/02/02 02:50:45;;;;;;;23.88;9.23;;;8.60;81.10;;;;;;5039163;28;20038;-73
2023/02/02 02:53:16;;;;;;;27.42;10.70;;;8.50;81.10;;;;;;5036633;28;20041;-73
2023/02/02 02:56:24;;;;;;;29.08;13.13;;;8.60;81.10;;;;;;5037269;28;20025;-72
2023/02/02 02:59:16;;;;;;;30.98;14.93;;;8.50;81.10;;;;;;5038963;28;20021;-73
2023/02/02 03:01:56;;;;;;;25.88;12.75;;;8.50;81.20;;;;;;5029744;28;20033;-73
2023/02/02 03:04:39;;;;;;;37.15;17.13;;;8.50;81.30;;;;;;5038001;28;20469;-73
2023/02/02 03:07:12;;;;;;;27.85;17.83;;;8.50;81.10;;;;;;5036732;28;20551;-73
2023/02/02 03:09:41;;;;;;;34.13;15.18;;;8.50;81.10;;;;;;5037735;28;20036;-73
2023/02/02 03:12:07;;;;;;;22.40;11.77;;;8.50;81.20;;;;;;5035706;28;20045;-73
2023/02/02 03:14:36;;;;;;;18.30;9.23;;;8.50;81.40;;;;;;5039798;28;20029;-73
2023/02/02 03:17:02;;;;;;;20.08;6.30;;;8.50;81.20;;;;;;5037154;28;20064;-73
2023/02/02 03:19:28;;;;;;;19.25;6.57;;;8.50;81.10;;;;;;5040441;28;20444;-73
2023/02/02 03:21:53;;;;;;;16.73;6.43;;;8.50;81.00;;;;;;5036184;28;20048;-73
2023/02/02 03:24:19;;;;;;;25.17;6.70;;;8.50;81.20;;;;;;5040809;28;20033;-73
2023/02/02 03:26:45;;;;;;;25.70;6.93;;;8.50;81.20;;;;;;5039061;28;20115;-73
2023/02/02 03:29:11;;;;;;;22.73;6.30;;;8.50;81.20;;;;;;5041432;28;20356;-73
2023/02/02 03:31:37;;;;;;;21.00;6.72;;;8.50;81.30;;;;;;5042234;28;20037;-73
2023/02/02 03:34:02;;;;;;;20.42;7.75;;;8.50;81.30;;;;;;5041148;28;20047;-73
2023/02/02 03:36:28;;;;;;;20.45;6.05;;;8.50;81.50;;;;;;5042391;28;20041;-73
2023/02/02 03:38:54;;;;;;;19.38;5.93;;;8.50;81.40;;;;;;5038045;28;20017;-73
2023/02/02 03:41:20;;;;;;;20.92;7.45;;;8.50;81.40;;;;;;5039763;28;20220;-73
2023/02/02 03:43:46;;;;;;;19.23;6.03;;;8.50;81.30;;;;;;5037012;28;20040;-73
2023/02/02 03:46:11;;;;;;;25.88;6.65;;;8.50;81.30;;;;;;5038356;28;20033;-73
2023/02/02 03:48:37;;;;;;;20.77;6.35;;;8.60;81.40;;;;;;5032583;28;20084;-73
2023/02/02 03:51:12;;;;;;;20.52;6.97;;;8.50;81.30;;;;;;5037170;28;20365;-73
2023/02/02 03:53:39;;;;;;;23.15;6.53;;;8.50;81.50;;;;;;5036784;28;20409;-73
2023/02/02 03:56:05;;;;;;;23.63;6.65;;;8.50;81.80;;;;;;5038364;28;20104;-74
2023/02/02 03:58:30;;;;;;;23.20;5.95;;;8.50;81.80;;;;;;5037100;28;20109;-73
2023/02/02 04:01:09;;;;;;;24.92;5.88;;;8.50;81.60;;;;;;5034349;28;20038;-73
2023/02/02 04:03:35;;;;;;;20.02;6.25;;;8.50;81.80;;;;;;5036021;28;20036;-72
2023/02/02 04:06:01;;;;;;;19.17;6.30;;;8.50;82.10;;;;;;5039427;28;20071;-73
2023/02/02 04:08:27;;;;;;;24.48;6.22;;;8.40;81.90;;;;;;5030195;28;20081;-73
2023/02/02 04:10:53;;;;;;;23.60;8.60;;;8.40;82.10;;;;;;5037720;28;20032;-73
2023/02/02 04:13:18;;;;;;;22.23;5.90;;;8.40;82.00;;;;;;5037830;28;20032;-73
2023/02/02 04:15:44;;;;;;;24.65;6.28;;;8.40;82.20;;;;;;5034653;28;20090;-73
2023/02/02 04:18:10;;;;;;;21.38;6.32;;;8.40;82.30;;;;;;5037797;28;20028;-73
2023/02/02 04:20:36;;;;;;;25.33;6.45;;;8.40;82.30;;;;;;5032992;28;20128;-73
2023/02/02 04:23:02;;;;;;;24.02;6.63;;;8.40;82.40;;;;;;5033480;28;20060;-73
2023/02/02 04:25:27;;;;;;;22.38;6.68;;;8.40;82.60;;;;;;5035329;28;20025;-73
2023/02/02 04:27:53;;;;;;;21.08;7.03;;;8.40;82.60;;;;;;5037890;28;20481;-73
2023/02/02 04:30:19;;;;;;;22.70;6.18;;;8.40;82.70;;;;;;5036649;28;20045;-73
2023/02/02 04:32:45;;;;;;;22.35;6.15;;;8.40;82.60;;;;;;5034812;28;20033;-73
2023/02/02 04:35:11;;;;;;;18.80;5.65;;;8.40;82.70;;;;;;5036372;28;20063;-73
2023/02/02 04:37:37;;;;;;;19.42;5.70;;;8.40;82.70;;;;;;5035395;28;20241;-73
2023/02/02 04:40:03;;;;;;;15.80;5.38;;;8.40;82.80;;;;;;5036393;28;20024;-73
2023/02/02 04:42:31;;;;;;;18.13;5.38;;;8.30;82.90;;;;;;5033664;28;20039;-73
2023/02/02 04:44:57;;;;;;;24.17;5.72;;;8.30;83.00;;;;;;5036974;28;20517;-73
2023/02/02 04:47:23;;;;;;;22.65;6.55;;;8.40;82.90;;;;;;5037911;28;20025;-73
2023/02/02 04:49:49;;;;;;;21.50;9.93;;;8.40;82.90;;;;;;5033121;28;20048;-73
2023/02/02 04:52:14;;;;;;;23.08;13.45;;;8.30;83.10;;;;;;5036972;28;20070;-73
2023/02/02 04:54:40;;;;;;;34.90;18.17;;;8.30;83.10;;;;;;5036008;28;20029;-73
2023/02/02 04:57:06;;;;;;;35.00;19.50;;;8.30;83.20;;;;;;5036831;28;20332;-73
2023/02/02 04:59:31;;;;;;;33.38;21.58;;;8.30;83.10;;;;;;5034790;28;20029;-72
2023/02/02 05:02:01;;;;;;;36.00;22.27;;;8.30;83.10;;;;;;5037431;28;20044;-73
2023/02/02 05:04:26;;;;;;;32.47;22.38;;;8.40;83.20;;;;;;5037956;28;20381;-73
2023/02/02 05:06:52;;;;;;;41.60;21.33;;;8.30;83.30;;;;;;5037013;28;20023;-73
2023/02/02 05:09:18;;;;;;;34.75;18.88;;;8.30;83.30;;;;;;5037457;28;20415;-73
2023/02/02 05:11:44;;;;;;;33.75;18.67;;;8.30;83.30;;;;;;5037461;28;20021;-73
2023/02/02 05:14:10;;;;;;;34.40;14.63;;;8.30;83.20;;;;;;5033412;28;20048;-73
2023/02/02 05:16:36;;;;;;;23.65;7.78;;;8.40;83.30;;;;;;5032471;28;20121;-73
2023/02/02 05:19:01;;;;;;;21.42;7.10;;;8.40;83.20;;;;;;5035621;28;20041;-73
2023/02/02 05:21:27;;;;;;;24.42;7.03;;;8.40;83.30;;;;;;5034562;28;20104;-73
2023/02/02 05:23:53;;;;;;;23.73;6.63;;;8.30;83.50;;;;;;5035188;28;20048;-73
2023/02/02 05:26:22;;;;;;;24.40;6.57;;;8.40;83.50;;;;;;5035356;28;20022;-73
2023/02/02 05:28:48;;;;;;;21.75;6.65;;;8.40;83.70;;;;;;5036512;28;20483;-73
2023/02/02 05:31:15;;;;;;;20.40;5.30;;;8.40;84.00;;;;;;5034929;28;20029;-73
2023/02/02 05:33:40;;;;;;;19.38;5.22;;;8.40;83.90;;;;;;5038028;28;20084;-73
2023/02/02 05:36:06;;;;;;;22.08;4.85;;;8.40;84.10;;;;;;5039742;28;20523;-73
2023/02/02 05:38:32;;;;;;;18.23;5.40;;;8.30;84.20;;;;;;5037710;28;20021;-73
2023/02/02 05:40:59;;;;;;;18.48;5.25;;;8.30;84.20;;;;;;5036075;28;20108;-73
2023/02/02 05:43:28;;;;;;;19.70;5.43;;;8.30;84.50;;;;;;5039032;28;20033;-73
2023/02/02 05:45:54;;;;;;;24.40;6.00;;;8.20;84.70;;;;;;5038702;28;20373;-72
2023/02/02 05:48:20;;;;;;;25.02;5.75;;;8.20;84.60;;;;;;5037807;28;20052;-73
2023/02/02 05:51:10;;;;;;;20.88;5.68;;;8.30;84.70;;;;;;5038485;28;20350;-73
2023/02/02 05:53:35;;;;;;;19.77;5.63;;;8.30;84.80;;;;;;5031932;28;20045;-73
2023/02/02 05:56:01;;;;;;;19.63;6.22;;;8.20;84.70;;;;;;5036683;28;20103;-74
2023/02/02 05:58:27;;;;;;;24.55;6.13;;;8.20;84.70;;;;;;5036528;28;20030;-74
2023/02/02 06:00:53;;;;;;;21.88;6.88;;;8.30;84.70;;;;;;5038896;28;20025;-73
2023/02/02 06:03:18;;;;;;;17.80;5.82;;;8.30;84.70;;;;;;5038696;28;20477;-73
2023/02/02 06:05:44;;;;;;;16.65;5.60;;;8.30;84.40;;;;;;5036253;28;20040;-73
2023/02/02 06:08:10;;;;;;;16.75;5.07;;;8.30;84.50;;;;;;5039624;28;20082;-73
2023/02/02 06:10:39;;;;;;;21.73;6.28;;;8.30;84.50;;;;;;5041852;28;20025;-73
2023/02/02 06:13:05;;;;;;;19.27;4.82;;;8.30;84.40;;;;;;5042910;28;20098;-73
2023/02/02 06:15:31;;;;;;;20.30;4.82;;;8.30;84.40;;;;;;5039665;28;20100;-73
2023/02/02 06:17:57;;;;;;;14.15;4.45;;;8.30;84.10;;;;;;5036585;28;20359;-73
2023/02/02 06:20:23;;;;;;;19.15;4.47;;;8.40;83.90;;;;;;5037294;28;20516;-73
2023/02/02 06:22:49;;;;;;;14.38;4.40;;;8.40;83.80;;;;;;5036775;28;20074;-73
2023/02/02 06:25:14;;;;;;;16.98;4.30;;;8.40;83.70;;;;;;5037625;28;20288;-73
2023/02/02 06:27:40;;;;;;;15.68;5.18;;;8.40;83.60;;;;;;5038592;28;20354;-73
2023/02/02 06:30:06;;;;;;;16.60;4.60;;;8.40;83.60;;;;;;5045693;28;20020;-73
2023/02/02 06:32:32;;;;;;;16.02;4.43;;;8.40;83.40;;;;;;5040433;28;20042;-73
2023/02/02 06:34:58;;;;;;;15.45;4.25;;;8.40;83.20;;;;;;5049117;28;20032;-73
2023/02/02 06:37:23;;;;;;;14.80;4.22;;;8.40;83.10;;;;;;5041884;28;20086;-73
2023/02/02 06:39:50;;;;;;;12.48;4.13;;;8.40;83.00;;;;;;5046070;28;20342;-73
2023/02/02 06:42:15;;;;;;;14.02;4.65;;;8.40;82.90;;;;;;5046035;28;20037;-73
2023/02/02 06:44:41;;;;;;;17.95;4.65;;;8.40;82.80;;;;;;5044063;28;20388;-73
2023/02/02 06:47:07;;;;;;;14.82;4.47;;;8.30;82.90;;;;;;5046479;28;20501;-73
2023/02/02 06:49:32;;;;;;;13.25;4.20;;;8.40;82.70;;;;;;5047515;28;20049;-73
2023/02/02 06:51:58;;;;;;;18.95;4.68;;;8.30;82.80;;;;;;5041941;28;20013;-72
2023/02/02 06:54:24;;;;;;;15.98;5.90;;;8.30;82.70;;;;;;5040722;28;20017;-73
2023/02/02 06:56:49;;;;;;;15.82;7.32;;;8.40;82.60;;;;;;5041999;28;20029;-73
2023/02/02 06:59:15;;;;;;;23.25;8.85;;;8.40;82.60;;;;;;5045974;28;20017;-73
2023/02/02 07:01:41;;;;;;;25.17;12.25;;;8.40;82.50;;;;;;5041768;28;20448;-73
2023/02/02 07:04:06;;;;;;;27.70;16.90;;;8.40;82.30;;;;;;5038109;28;20025;-73
2023/02/02 07:06:32;;;;;;;26.83;15.80;;;8.40;82.20;;;;;;5041276;28;20033;-73
2023/02/02 07:08:59;;;;;;;29.65;16.85;;;8.50;82.10;;;;;;5039284;28;20100;-73
2023/02/02 07:11:25;;;;;;;22.15;13.82;;;8.50;82.00;;;;;;5048984;28;20448;-73
2023/02/02 07:13:51;;;;;;;16.98;8.27;;;8.50;81.70;;;;;;5045746;28;20064;-73
2023/02/02 07:16:18;;;;;;;16.63;6.35;;;8.50;81.70;;;;;;5040205;28;20064;-73
2023/02/02 07:18:43;;;;;;;16.38;4.30;;;8.60;81.50;;;;;;5041521;28;20017;-71
2023/02/02 07:21:17;;;;;;;13.00;3.72;;;8.50;81.30;;;;;;5041190;28;20021;-74
2023/02/02 07:23:42;;;;;;;14.38;4.53;;;8.60;81.30;;;;;;5045978;28;20025;-74
2023/02/02 07:26:09;;;;;;;12.65;3.47;;;8.50;81.20;;;;;;5038539;28;20511;-74
2023/02/02 07:28:35;;;;;;;14.73;3.53;;;8.60;81.20;;;;;;5042475;28;20037;-76
2023/02/02 07:31:21;;;;;;;14.30;3.10;;;8.60;81.00;;;;;;5042783;28;20029;-76
2023/02/02 07:33:47;;;;;;;13.13;4.25;;;8.60;81.00;;;;;;5039621;28;20028;-76
2023/02/02 07:36:15;;;;;;;12.32;3.55;;;8.60;80.70;;;;;;5038114;28;20028;-76
2023/02/02 07:38:42;;;;;;;18.20;4.57;;;8.60;80.80;;;;;;5045834;28;20029;-76
2023/02/02 07:41:08;;;;;;;15.15;4.07;;;8.60;80.80;;;;;;5038150;28;20598;-77
2023/02/02 07:43:33;;;;;;;13.05;4.28;;;8.60;80.70;;;;;;5041345;28;20040;-75
2023/02/02 07:46:01;;;;;;;14.60;3.83;;;8.60;80.60;;;;;;5039921;28;20029;-76
2023/02/02 07:48:28;;;;;;;14.15;4.15;;;8.70;80.40;;;;;;5039829;28;20053;-76
2023/02/02 07:50:57;;;;;;;15.90;4.32;;;8.70;80.30;;;;;;5033758;28;20048;-76
2023/02/02 07:53:22;;;;;;;15.98;4.30;;;8.70;80.40;;;;;;5040891;28;20032;-76
2023/02/02 07:55:48;;;;;;;16.00;4.43;;;8.70;80.50;;;;;;5040538;28;20029;-76
2023/02/02 07:58:13;;;;;;;15.18;4.03;;;8.70;80.40;;;;;;5040460;28;20449;-76
2023/02/02 08:00:39;;;;;;;18.00;4.60;;;8.70;80.40;;;;;;5041325;28;20017;-75
2023/02/02 08:03:05;;;;;;;16.08;4.78;;;8.70;80.50;;;;;;5046052;28;20043;-75
2023/02/02 08:05:33;;;;;;;18.02;4.43;;;8.70;80.50;;;;;;5045808;28;20017;-76
2023/02/02 08:07:59;;;;;;;13.00;4.20;;;8.70;80.50;;;;;;5041264;28;20349;-77
2023/02/02 08:10:24;;;;;;;11.43;3.53;;;8.70;80.60;;;;;;5045008;28;20013;-76
2023/02/02 08:12:50;;;;;;;17.08;4.05;;;8.70;80.40;;;;;;5038513;28;20052;-76
2023/02/02 08:15:16;;;;;;;17.42;4.88;;;8.80;80.30;;;;;;5043345;28;20433;-76
2023/02/02 08:17:45;;;;;;;14.60;4.40;;;8.80;80.40;;;;;;5038178;28;20068;-76
2023/02/02 08:20:12;;;;;;;13.63;4.15;;;8.80;80.50;;;;;;5037915;28;20424;-77
2023/02/02 08:22:38;;;;;;;12.40;4.05;;;8.80;80.30;;;;;;5035450;28;20068;-75
2023/02/02 08:25:04;;;;;;;18.05;4.93;;;8.80;80.20;;;;;;5044865;28;20057;-76
2023/02/02 08:27:30;;;;;;;16.65;4.40;;;8.80;80.20;;;;;;5043258;28;20098;-76
2023/02/02 08:29:56;;;;;;;16.52;4.43;;;8.80;80.30;;;;;;5038732;28;20029;-75
2023/02/02 08:32:21;;;;;;;15.52;4.35;;;8.90;79.90;;;;;;5040346;28;20433;-75
2023/02/02 08:34:48;;;;;;;15.98;4.40;;;8.90;80.10;;;;;;5042490;28;20029;-75
2023/02/02 08:37:14;;;;;;;14.10;3.65;;;8.90;79.80;;;;;;5044797;28;20025;-75
2023/02/02 08:39:39;;;;;;;16.65;4.13;;;9.00;79.70;;;;;;5043062;28;20110;-76
2023/02/02 08:42:05;;;;;;;15.60;4.50;;;8.90;79.90;;;;;;5042603;28;20080;-75
2023/02/02 08:44:30;;;;;;;23.27;4.00;;;9.00;79.70;;;;;;5044817;28;20052;-75
2023/02/02 08:46:56;;;;;;;13.43;3.40;;;9.00;79.80;;;;;;5037192;28;20070;-77
2023/02/02 08:49:22;;;;;;;21.58;4.40;;;9.00;79.80;;;;;;5039255;28;20040;-75
2023/02/02 08:51:47;;;;;;;15.50;4.10;;;9.10;79.70;;;;;;5039523;28;20041;-75
2023/02/02 08:54:13;;;;;;;15.82;3.67;;;9.00;79.60;;;;;;5044924;28;20037;-76
2023/02/02 08:56:39;;;;;;;15.38;3.72;;;9.10;79.80;;;;;;5039819;28;20111;-76
2023/02/02 08:59:04;;;;;;;16.52;4.47;;;9.10;79.60;;;;;;5036039;28;20033;-76
2023/02/02 09:01:32;;;;;;;15.27;3.83;;;9.10;79.80;;;;;;5045620;28;20025;-76
2023/02/02 09:04:07;;;;;;;18.70;4.43;;;9.10;79.80;;;;;;5041111;28;20039;-77
2023/02/02 09:06:33;;;;;;;;;;;9.20;79.40;;;;;;5038382;28;20354;-75
2023/02/02 09:08:59;;;;;;;15.13;4.05;;;9.20;79.40;;;;;;5042611;28;19905;-76
2023/02/02 09:11:25;;;;;;;13.30;4.43;;;9.20;79.20;;;;;;5044193;28;20091;-76
2023/02/02 09:13:56;;;;;;;14.43;4.35;;;9.20;79.30;;;;;;5041419;28;20086;-75
2023/02/02 09:16:22;;;;;;;13.57;4.45;;;9.30;79.30;;;;;;5044560;28;20465;-75
2023/02/02 09:18:48;;;;;;;16.83;4.40;;;9.30;79.20;;;;;;5042100;28;20104;-75
2023/02/02 09:21:15;;;;;;;16.80;4.43;;;9.40;79.00;;;;;;5036032;28;20104;-79
2023/02/02 09:23:43;;;;;;;18.58;5.30;;;9.50;78.70;;;;;;5041353;28;20079;-76
2023/02/02 09:26:09;;;;;;;18.80;4.25;;;9.50;78.10;;;;;;5034132;28;20086;-77
2023/02/02 09:28:35;;;;;;;16.58;4.88;;;9.60;78.30;;;;;;5031414;28;20028;-75
2023/02/02 09:31:01;;;;;;;13.80;4.78;;;9.50;78.30;;;;;;5044605;28;20063;-76
2023/02/02 09:33:27;;;;;;;17.00;4.63;;;9.50;78.20;;;;;;5035225;28;20017;-76
2023/02/02 09:35:53;;;;;;;14.43;5.03;;;9.40;78.40;;;;;;5038867;28;20103;-75
2023/02/02 09:38:18;;;;;;;15.73;4.30;;;9.40;78.30;;;;;;5042895;28;20048;-74
2023/02/02 09:40:44;;;;;;;14.23;4.95;;;9.40;78.30;;;;;;5038657;28;20039;-76
2023/02/02 09:43:41;;;;;;;11.77;4.20;;;9.40;78.50;;;;;;5040228;28;20121;-75
2023/02/02 09:46:37;;;;;;;17.60;4.43;;;9.30;78.60;;;;;;5037569;28;20036;-76
2023/02/02 09:49:13;;;;;;;15.73;4.93;;;9.30;78.70;;;;;;5043980;28;20052;-75
2023/02/02 09:51:45;;;;;;;16.83;4.80;;;9.40;78.40;;;;;;5041122;28;20120;-74
2023/02/02 09:54:34;;;;;;;13.02;3.60;;;9.40;78.30;;;;;;5040650;28;20482;-75
2023/02/02 09:57:07;;;;;;;14.55;3.75;;;9.40;78.50;;;;;;5041150;28;20090;-75
2023/02/02 09:59:39;;;;;;;15.18;4.55;;;9.50;78.30;;;;;;5037790;28;20045;-76
2023/02/02 10:02:15;;;;;;;14.20;4.38;;;9.60;78.20;;;;;;5042163;28;20096;-75
2023/02/02 10:04:47;;;;;;;18.73;4.40;;;9.60;78.00;;;;;;5047802;28;20094;-76
2023/02/02 10:07:17;;;;;;;15.00;4.25;;;9.60;77.90;;;;;;5037944;28;20033;-75
2023/02/02 10:10:06;;;;;;;17.73;3.92;;;9.60;77.60;;;;;;5046190;28;20017;-75
2023/02/02 10:12:46;;;;;;;11.57;4.60;;;9.60;77.40;;;;;;5043562;28;20148;-75
2023/02/02 10:15:19;;;;;;;17.30;4.97;;;9.40;77.80;;;;;;5043898;28;20381;-75
2023/02/02 10:17:50;;;;;;;15.45;4.25;;;9.60;77.60;;;;;;5044884;28;20120;-75
2023/02/02 10:20:31;;;;;;;15.60;4.22;;;9.90;76.70;;;;;;5042783;28;20029;-75
2023/02/02 10:23:05;;;;;;;14.95;4.03;;;10.00;75.80;;;;;;5047386;28;20064;-76
2023/02/02 10:25:34;;;;;;;12.13;4.15;;;10.20;75.80;;;;;;5046923;28;20096;-76
2023/02/02 10:28:09;;;;;;;11.90;3.72;;;10.30;75.10;;;;;;5042958;28;20512;-75
2023/02/02 10:30:59;;;;;;;11.88;4.07;;;10.20;75.30;;;;;;5044906;28;20032;-75
2023/02/02 10:33:38;;;;;;;11.90;3.75;;;10.40;74.90;;;;;;5043372;28;20036;-72
2023/02/02 10:36:34;;;;;;;11.45;4.38;;;10.20;74.90;;;;;;5047007;28;20117;-72
2023/02/02 10:39:08;;;;;;;12.77;4.55;;;10.30;75.40;;;;;;5044776;28;20130;-73
2023/02/02 10:41:44;;;;;;;;;;;10.50;75.10;;;;;;5042949;28;21478;-72
2023/02/02 10:44:21;;;;;;;14.07;4.45;;;10.60;74.30;;;;;;5036881;28;20281;-75
2023/02/02 10:46:51;;;;;;;13.13;3.60;;;10.70;73.60;;;;;;5038115;28;20085;-73
2023/02/02 10:49:36;;;;;;;16.33;4.63;;;10.50;73.60;;;;;;5028977;28;20955;-74
2023/02/02 10:52:19;;;;;;;16.25;4.38;;;10.60;73.70;;;;;;5027110;28;20021;-74
2023/02/02 10:54:51;;;;;;;16.58;3.72;;;10.60;73.80;;;;;;5036455;28;20083;-73
2023/02/02 10:57:31;;;;;;;13.55;4.05;;;10.50;74.50;;;;;;5035875;28;20103;-75
2023/02/02 11:00:06;;;;;;;13.32;4.32;;;10.50;74.50;;;;;;5038520;28;20027;-75
2023/02/02 11:02:32;;;;;;;13.07;3.40;;;10.60;74.20;;;;;;5038444;28;20037;-75
2023/02/02 11:07:42;;;;;;;11.45;3.58;;;10.80;73.50;;;;;;5034227;28;20753;-73
2023/02/02 11:10:09;;;;;;;11.25;4.07;;;10.70;74.00;;;;;;5037296;28;20032;-75
2023/02/02 11:12:39;;;;;;;12.55;3.72;;;10.70;74.30;;;;;;5035959;28;20040;-75
2023/02/02 11:15:07;;;;;;;12.95;3.63;;;10.80;74.20;;;;;;5029442;28;20017;-72
2023/02/02 11:17:34;;;;;;;15.68;3.35;;;10.90;73.90;;;;;;5031527;28;21277;-75
2023/02/02 11:20:21;;;;;;;13.35;3.70;;;10.90;73.90;;;;;;5031374;28;20028;-73
2023/02/02 11:22:57;;;;;;;12.48;3.47;;;11.00;73.60;;;;;;5036390;28;20029;-74
2023/02/02 11:25:31;;;;;;;11.48;3.60;;;10.80;74.00;;;;;;5032750;28;20025;-74
2023/02/02 11:27:57;;;;;;;14.70;3.58;;;10.90;74.20;;;;;;5033622;28;20048;-74
2023/02/02 11:30:37;;;;;;;10.60;3.63;;;11.10;73.90;;;;;;5035116;28;20029;-75
2023/02/02 11:33:33;;;;;;;10.93;3.50;;;11.10;74.00;;;;;;5029810;28;20037;-75
2023/02/02 11:36:01;;;;;;;15.05;3.50;;;11.20;73.80;;;;;;5022021;28;20435;-75
2023/02/02 11:38:28;;;;;;;11.63;3.63;;;11.30;73.70;;;;;;5027317;28;20134;-75
2023/02/02 11:41:09;;;;;;;12.52;3.30;;;11.40;73.00;;;;;;5027381;28;20108;-73
2023/02/02 11:43:40;;;;;;;11.98;3.25;;;11.50;72.90;;;;;;5030381;28;20036;-74
2023/02/02 11:46:16;;;;;;;9.90;2.72;;;11.60;73.30;;;;;;5031959;28;20029;-74
2023/02/02 11:49:03;;;;;;;11.43;3.30;;;11.90;72.60;;;;;;5029966;28;20064;-73
2023/02/02 11:51:30;;;;;;;12.70;3.50;;;12.00;71.90;;;;;;5032503;28;20112;-73
2023/02/02 11:54:02;;;;;;;10.20;2.97;;;12.00;72.30;;;;;;5034819;28;20043;-73
2023/02/02 11:56:28;;;;;;;10.95;2.60;;;11.80;71.90;;;;;;5028616;28;20041;-73
2023/02/02 11:58:58;;;;;;;9.93;3.08;;;11.70;72.30;;;;;;5032409;28;20494;-74
2023/02/02 12:01:28;;;;;;;15.68;3.53;;;11.30;73.20;;;;;;5031817;28;20043;-73
2023/02/02 12:03:56;;;;;;;9.85;3.15;;;11.30;73.80;;;;;;5034646;28;20049;-73
2023/02/02 12:06:36;;;;;;;12.98;2.95;;;11.30;74.00;;;;;;5036109;28;20033;-73
2023/02/02 12:09:20;;;;;;;10.15;3.40;;;11.10;74.50;;;;;;5033068;28;20025;-73
2023/02/02 12:12:08;;;;;;;8.63;3.55;;;11.20;74.20;;;;;;5035654;28;20041;-76
2023/02/02 12:14:34;;;;;;;13.30;4.13;;;11.30;74.30;;;;;;5033508;28;20033;-75
2023/02/02 12:17:24;;;;;;;10.23;3.60;;;11.40;74.60;;;;;;5031203;28;20471;-74
2023/02/02 12:20:11;;;;;;;9.32;3.78;;;11.20;74.60;;;;;;5023687;28;20032;-73
2023/02/02 12:23:05;;;;;;;12.48;4.38;;;11.20;74.70;;;;;;5030113;28;20048;-73
2023/02/02 12:26:04;;;;;;;10.73;4.13;;;11.20;74.90;;;;;;5021590;28;20033;-74
2023/02/02 12:28:56;;;;;;;11.95;3.80;;;11.40;74.50;;;;;;5037745;28;20537;-74
2023/02/02 12:31:33;;;;;;;12.48;3.92;;;11.40;74.50;;;;;;5035528;28;20037;-74
2023/02/02 12:34:03;;;;;;;13.73;4.35;;;11.30;75.00;;;;;;5035476;28;20017;-75
2023/02/02 12:36:39;;;;;;;11.65;4.80;;;11.30;74.70;;;;;;5035174;28;20037;-74
2023/02/02 12:39:19;;;;;;;13.82;4.00;;;11.50;75.30;;;;;;5035296;28;20465;-75
2023/02/02 12:42:13;;;;;;;10.60;3.15;;;11.60;74.40;;;;;;5037564;28;20435;-74
2023/02/02 12:45:09;;;;;;;8.15;2.65;;;11.60;75.30;;;;;;5038982;28;20033;-74
2023/02/02 12:47:53;;;;;;;11.63;3.70;;;11.60;74.60;;;;;;5037710;28;20036;-73
2023/02/02 12:50:52;;;;;;;9.88;2.97;;;11.80;74.40;;;;;;5042496;28;20028;-74
2023/02/02 12:53:41;;;;;;;10.73;3.28;;;11.80;74.00;;;;;;5039596;28;20036;-73
2023/02/02 12:56:32;;;;;;;12.27;3.67;;;11.80;74.60;;;;;;5027807;28;20492;-74
2023/02/02 12:59:16;;;;;;;9.25;3.70;;;11.70;74.80;;;;;;5037836;28;20024;-73
2023/02/02 13:02:03;;;;;;;12.73;2.88;;;11.70;75.10;;;;;;5039113;28;20449;-74
2023/02/02 13:04:56;;;;;;;14.18;3.47;;;11.80;75.00;;;;;;5037032;28;20136;-72
2023/02/02 13:07:35;;;;;;;13.00;3.70;;;11.90;74.90;;;;;;5037019;28;20376;-73
2023/02/02 13:10:08;;;;;;;11.25;3.28;;;11.90;75.00;;;;;;5039442;28;20021;-73
2023/02/02 13:12:41;;;;;;;9.15;3.45;;;11.90;74.50;;;;;;5038255;28;20108;-74
2023/02/02 13:15:10;;;;;;;11.55;3.15;;;11.90;74.50;;;;;;5038044;28;20048;-75